createdAt,value
2018-07-05T00:01:39.791Z,98.20
2018-07-05T00:04:20.245Z,98.00
2018-07-05T00:06:59.967Z,98.30
2018-07-05T00:09:39.647Z,98.30
2018-07-05T00:12:19.391Z,98.50
2018-07-05T00:14:58.991Z,98.80
2018-07-05T00:17:38.676Z,98.70
2018-07-05T00:20:18.201Z,98.80
2018-07-05T00:22:57.994Z,99.10
2018-07-05T00:25:37.628Z,99.40
2018-07-05T00:28:17.246Z,99.20
2018-07-05T00:30:56.761Z,99.40
2018-07-05T00:36:11.094Z,99.80
2018-07-05T00:38:51.567Z,99.80
2018-07-05T00:41:31.224Z,99.90
2018-07-05T00:44:10.769Z,99.90
2018-07-05T00:46:50.372Z,99.90
2018-07-05T00:49:30.075Z,99.90
2018-07-05T00:52:09.687Z,99.90
2018-07-05T00:54:49.280Z,99.90
2018-07-05T00:57:28.866Z,99.90
2018-07-05T01:00:08.523Z,99.90
2018-07-05T01:02:48.207Z,99.90
2018-07-05T01:05:27.819Z,99.90
2018-07-05T01:08:07.431Z,99.90
2018-07-05T01:10:47.153Z,99.90
2018-07-05T01:13:27.005Z,99.90
2018-07-05T01:16:06.948Z,99.90
2018-07-05T01:18:46.853Z,99.90
2018-07-05T01:21:26.623Z,99.90
2018-07-05T01:24:06.339Z,99.90
2018-07-05T01:26:45.920Z,99.90
2018-07-05T01:29:25.539Z,99.90
2018-07-05T01:32:05.081Z,99.90
2018-07-05T01:34:44.818Z,99.90
2018-07-05T01:37:24.589Z,99.90
2018-07-05T01:40:04.271Z,99.90
2018-07-05T01:42:43.885Z,99.90
2018-07-05T01:45:23.641Z,99.90
2018-07-05T01:48:04.273Z,99.90
2018-07-05T01:50:44.023Z,99.90
2018-07-05T01:53:23.730Z,99.90
2018-07-05T01:56:03.303Z,99.90
2018-07-05T01:58:43.133Z,99.90
2018-07-05T02:01:23.143Z,99.90
2018-07-05T02:04:02.987Z,99.90
2018-07-05T02:06:42.987Z,99.90
2018-07-05T02:09:23.179Z,99.90
2018-07-05T02:12:02.795Z,99.90
2018-07-05T02:14:42.440Z,99.90
2018-07-05T02:17:22.037Z,99.90
2018-07-05T02:20:01.669Z,99.90
2018-07-05T02:22:42.871Z,99.90
2018-07-05T02:25:22.577Z,99.90
2018-07-05T02:28:02.270Z,99.90
2018-07-05T02:30:41.909Z,99.90
2018-07-05T02:33:21.535Z,99.90
2018-07-05T02:36:01.125Z,99.90
2018-07-05T02:38:40.751Z,99.90
2018-07-05T02:41:20.432Z,99.90
2018-07-05T02:44:00.039Z,99.90
2018-07-05T02:46:39.631Z,99.90
2018-07-05T02:49:19.393Z,99.90
2018-07-05T02:51:58.968Z,99.90
2018-07-05T02:54:38.745Z,99.90
2018-07-05T02:57:19.277Z,99.90
2018-07-05T02:59:58.997Z,99.90
2018-07-05T03:02:38.615Z,99.90
2018-07-05T03:05:18.223Z,99.90
2018-07-05T03:07:57.816Z,99.90
2018-07-05T03:10:37.523Z,99.90
2018-07-05T03:13:17.082Z,99.90
2018-07-05T03:15:56.676Z,99.90
2018-07-05T03:18:36.216Z,99.90
2018-07-05T03:21:15.819Z,99.90
2018-07-05T03:23:55.411Z,99.90
2018-07-05T03:26:35.092Z,99.90
2018-07-05T03:29:14.699Z,99.90
2018-07-05T03:31:55.327Z,99.90
2018-07-05T03:34:35.100Z,99.90
2018-07-05T03:37:14.677Z,99.90
2018-07-05T03:39:54.319Z,99.90
2018-07-05T03:42:33.928Z,99.90
2018-07-05T03:45:13.620Z,99.90
2018-07-05T03:47:53.207Z,99.90
2018-07-05T03:50:32.820Z,99.90
2018-07-05T03:53:12.500Z,99.90
2018-07-05T03:55:52.103Z,99.90
2018-07-05T04:01:05.920Z,99.90
2018-07-05T04:03:45.534Z,99.90
2018-07-05T04:06:25.995Z,99.90
2018-07-05T04:09:05.736Z,99.90
2018-07-05T04:11:45.527Z,99.90
2018-07-05T04:14:25.188Z,99.90
2018-07-05T04:17:04.882Z,99.90
2018-07-05T04:19:47.878Z,99.90
2018-07-05T04:22:27.610Z,99.90
2018-07-05T04:25:07.153Z,99.90
2018-07-05T04:27:46.936Z,99.90
2018-07-05T04:30:26.783Z,99.90
2018-07-05T04:33:06.556Z,99.90
2018-07-05T04:35:46.557Z,99.90
2018-07-05T04:38:26.335Z,99.90
2018-07-05T04:41:06.049Z,99.90
2018-07-05T04:43:45.718Z,99.90
2018-07-05T04:46:25.472Z,99.90
2018-07-05T04:49:05.259Z,99.90
2018-07-05T04:51:45.204Z,99.90
2018-07-05T04:54:24.867Z,99.90
2018-07-05T04:57:05.341Z,99.90
2018-07-05T04:59:44.905Z,99.90
2018-07-05T05:02:24.411Z,99.90
2018-07-05T05:05:04.031Z,99.90
2018-07-05T05:07:43.063Z,99.90
2018-07-05T05:10:22.891Z,99.90
2018-07-05T05:13:02.757Z,99.90
2018-07-05T05:15:42.484Z,99.90
2018-07-05T05:18:22.216Z,99.90
2018-07-05T05:21:01.944Z,99.90
2018-07-05T05:23:41.615Z,99.90
2018-07-05T05:26:23.167Z,99.90
2018-07-05T05:29:02.795Z,99.90
2018-07-05T05:31:42.423Z,99.90
2018-07-05T05:34:22.052Z,99.90
2018-07-05T05:37:01.701Z,99.90
2018-07-05T05:39:41.627Z,99.90
2018-07-05T05:42:21.303Z,99.90
2018-07-05T05:45:00.883Z,99.90
2018-07-05T05:47:40.507Z,99.90
2018-07-05T05:50:20.425Z,99.90
2018-07-05T05:53:00.090Z,99.90
2018-07-05T05:55:39.796Z,99.90
2018-07-05T05:58:19.499Z,99.90
2018-07-05T06:00:59.344Z,99.90
2018-07-05T06:03:39.101Z,99.90
2018-07-05T06:06:19.874Z,99.90
2018-07-05T06:09:00.027Z,99.90
2018-07-05T06:11:39.632Z,99.90
2018-07-05T06:14:20.296Z,99.90
2018-07-05T06:17:00.143Z,99.90
2018-07-05T06:19:39.852Z,99.90
2018-07-05T06:22:19.504Z,99.90
2018-07-05T06:24:59.097Z,99.90
2018-07-05T06:27:38.890Z,99.90
2018-07-05T06:30:18.484Z,99.90
2018-07-05T06:32:58.503Z,95.30
2018-07-05T06:35:38.145Z,85.70
2018-07-05T06:38:17.643Z,74.00
2018-07-05T06:40:57.300Z,66.00
2018-07-05T06:43:36.867Z,61.50
2018-07-05T06:46:16.428Z,59.50
2018-07-05T06:48:56.850Z,58.00
2018-07-05T06:51:36.424Z,56.50
2018-07-05T06:54:15.999Z,56.20
2018-07-05T06:56:55.768Z,55.40
2018-07-05T06:59:35.509Z,54.20
2018-07-05T07:02:15.074Z,53.90
2018-07-05T07:04:54.843Z,53.60
2018-07-05T07:07:35.150Z,53.70
2018-07-05T07:10:15.296Z,55.20
2018-07-05T07:12:55.541Z,53.00
2018-07-05T07:15:36.083Z,53.10
2018-07-05T07:18:16.279Z,53.70
2018-07-05T07:20:56.408Z,54.70
2018-07-05T07:23:36.584Z,56.40
2018-07-05T07:26:16.912Z,56.00
2018-07-05T07:28:57.128Z,56.20
2018-07-05T07:31:37.416Z,56.50
2018-07-05T07:34:17.727Z,57.00
2018-07-05T07:36:58.040Z,57.80
2018-07-05T07:39:37.824Z,59.50
2018-07-05T07:42:05.202Z,62.60
2018-07-05T07:44:32.564Z,66.30
2018-07-05T07:47:00.650Z,68.50
2018-07-05T07:49:28.008Z,67.50
2018-07-05T07:51:55.415Z,70.10
2018-07-05T07:54:22.771Z,69.60
2018-07-05T07:56:51.169Z,66.80
2018-07-05T07:59:18.563Z,64.40
2018-07-05T08:01:45.961Z,61.10
2018-07-05T08:04:13.336Z,60.20
2018-07-05T08:06:40.703Z,60.00
2018-07-05T08:09:08.710Z,60.70
2018-07-05T08:11:36.631Z,59.40
2018-07-05T08:14:04.735Z,57.50
2018-07-05T08:16:32.655Z,56.30
2018-07-05T08:19:00.623Z,56.90
2018-07-05T08:21:28.535Z,56.50
2018-07-05T08:23:56.527Z,57.30
2018-07-05T08:26:24.448Z,58.30
2018-07-05T08:28:52.407Z,59.30
2018-07-05T08:31:20.339Z,59.20
2018-07-05T08:33:48.286Z,59.90
2018-07-05T08:36:16.231Z,59.60
2018-07-05T08:38:44.174Z,58.50
2018-07-05T08:41:12.100Z,57.40
2018-07-05T08:43:40.035Z,57.60
2018-07-05T08:48:36.343Z,57.00
2018-07-05T08:51:04.297Z,56.50
2018-07-05T08:53:32.264Z,57.00
2018-07-05T08:56:00.243Z,56.50
2018-07-05T08:58:28.196Z,58.00
2018-07-05T09:00:56.146Z,57.50
2018-07-05T09:03:24.086Z,57.30
2018-07-05T09:05:52.014Z,56.10
2018-07-05T09:08:19.959Z,55.40
2018-07-05T09:10:47.863Z,54.60
2018-07-05T09:13:15.800Z,57.40
2018-07-05T09:15:43.705Z,57.40
2018-07-05T09:18:11.691Z,55.70
2018-07-05T09:20:39.731Z,58.70
2018-07-05T09:23:07.704Z,58.40
2018-07-05T09:25:35.747Z,58.20
2018-07-05T09:28:03.660Z,58.90
2018-07-05T09:30:31.571Z,60.10
2018-07-05T09:32:58.906Z,59.70
2018-07-05T09:35:26.281Z,59.10
2018-07-05T09:37:53.659Z,60.30
2018-07-05T09:40:21.026Z,61.50
2018-07-05T09:42:48.384Z,61.70
2018-07-05T09:45:15.751Z,59.40
2018-07-05T09:47:43.103Z,60.70
2018-07-05T09:50:10.513Z,60.60
2018-07-05T09:52:37.927Z,62.00
2018-07-05T09:55:05.453Z,63.20
2018-07-05T09:57:32.802Z,63.50
2018-07-05T10:00:00.184Z,61.50
2018-07-05T10:02:27.526Z,62.70
2018-07-05T10:04:55.456Z,62.80
2018-07-05T10:07:22.799Z,61.70
2018-07-05T10:09:50.187Z,62.00
2018-07-05T10:12:17.559Z,61.10
2018-07-05T10:14:44.931Z,62.00
2018-07-05T10:17:12.305Z,62.80
2018-07-05T10:19:39.663Z,62.90
2018-07-05T10:24:34.821Z,62.90
2018-07-05T10:27:02.252Z,64.60
2018-07-05T10:29:42.173Z,62.10
2018-07-05T10:32:21.971Z,61.60
2018-07-05T10:34:49.866Z,62.90
2018-07-05T10:37:23.739Z,62.80
2018-07-05T10:40:04.344Z,61.60
2018-07-05T10:42:44.095Z,61.60
2018-07-05T10:45:24.220Z,63.20
2018-07-05T10:48:03.723Z,62.30
2018-07-05T10:50:43.346Z,61.90
2018-07-05T10:53:23.035Z,61.80
2018-07-05T10:56:02.660Z,61.10
2018-07-05T10:58:42.284Z,61.60
2018-07-05T11:01:21.916Z,61.90
2018-07-05T11:04:01.539Z,62.90
2018-07-05T11:06:41.124Z,61.80
2018-07-05T11:09:20.771Z,61.00
2018-07-05T11:12:00.339Z,62.10
2018-07-05T11:14:39.921Z,61.80
2018-07-05T11:17:19.480Z,62.90
2018-07-05T11:19:59.976Z,62.80
2018-07-05T11:22:39.603Z,61.80
2018-07-05T11:25:19.339Z,62.40
2018-07-05T11:27:58.911Z,62.60
2018-07-05T11:30:38.432Z,63.20
2018-07-05T11:33:18.056Z,64.70
2018-07-05T11:35:57.695Z,64.50
2018-07-05T11:38:37.301Z,65.30
2018-07-05T11:41:17.078Z,65.80
2018-07-05T11:43:56.762Z,64.10
2018-07-05T11:46:36.628Z,64.70
2018-07-05T11:49:16.099Z,67.30
2018-07-05T11:51:55.767Z,67.70
2018-07-05T11:54:35.640Z,65.00
2018-07-05T11:57:15.263Z,65.50
2018-07-05T11:59:55.044Z,64.50
2018-07-05T12:02:34.672Z,63.50
2018-07-05T12:05:14.304Z,63.10
2018-07-05T12:07:54.014Z,61.80
2018-07-05T12:10:33.962Z,60.80
2018-07-05T12:13:13.598Z,62.50
2018-07-05T12:15:53.110Z,63.20
2018-07-05T12:18:32.928Z,62.60
2018-07-05T12:21:12.627Z,63.20
2018-07-05T12:23:52.405Z,62.00
2018-07-05T12:26:32.155Z,60.90
2018-07-05T12:29:12.286Z,61.50
2018-07-05T12:31:52.345Z,60.80
2018-07-05T12:34:32.079Z,63.10
2018-07-05T12:37:11.717Z,60.20
2018-07-05T12:39:51.829Z,61.60
2018-07-05T12:42:32.054Z,60.80
2018-07-05T12:45:11.886Z,60.90
2018-07-05T12:47:51.525Z,62.00
2018-07-05T12:50:31.135Z,60.40
2018-07-05T12:53:10.866Z,60.60
2018-07-05T12:55:50.459Z,60.90
2018-07-05T12:58:30.530Z,60.50
2018-07-05T13:01:10.364Z,61.70
2018-07-05T13:03:49.974Z,61.50
2018-07-05T13:06:29.550Z,61.10
2018-07-05T13:09:09.410Z,60.20
2018-07-05T13:11:49.551Z,61.00
2018-07-05T13:14:29.164Z,61.30
2018-07-05T13:17:08.734Z,61.50
2018-07-05T13:19:48.298Z,60.50
2018-07-05T13:22:27.878Z,61.20
2018-07-05T13:25:07.467Z,60.50
2018-07-05T13:27:47.051Z,60.10
2018-07-05T13:30:26.737Z,61.60
2018-07-05T13:33:06.312Z,60.10
2018-07-05T13:35:46.131Z,60.80
2018-07-05T13:38:25.760Z,60.20
2018-07-05T13:41:05.350Z,60.30
2018-07-05T13:43:45.018Z,59.20
2018-07-05T13:46:25.628Z,59.20
2018-07-05T13:51:38.904Z,60.10
2018-07-05T13:54:18.547Z,59.80
2018-07-05T13:56:58.107Z,57.70
2018-07-05T13:59:37.633Z,57.80
2018-07-05T14:02:17.244Z,58.60
2018-07-05T14:04:56.920Z,57.70
2018-07-05T14:07:36.508Z,56.10
2018-07-05T14:10:16.200Z,55.20
2018-07-05T14:12:56.635Z,56.10
2018-07-05T14:15:38.052Z,57.10
2018-07-05T14:18:17.593Z,55.20
2018-07-05T14:20:57.286Z,57.10
2018-07-05T14:23:36.943Z,56.20
2018-07-05T14:28:50.259Z,55.40
2018-07-05T14:31:29.799Z,54.50
2018-07-05T14:34:09.569Z,54.40
2018-07-05T14:36:49.227Z,55.80
2018-07-05T14:39:28.857Z,54.70
2018-07-05T14:42:08.415Z,54.10
2018-07-05T14:44:48.017Z,55.00
2018-07-05T14:47:27.799Z,55.70
2018-07-05T14:50:07.507Z,55.20
2018-07-05T14:52:47.117Z,55.70
2018-07-05T14:55:26.736Z,56.20
2018-07-05T15:00:40.012Z,56.20
2018-07-05T15:03:19.782Z,56.60
2018-07-05T15:05:59.496Z,55.90
2018-07-05T15:08:39.181Z,56.10
2018-07-05T15:11:18.792Z,56.30
2018-07-05T15:13:59.081Z,55.20
2018-07-05T15:16:38.609Z,55.10
2018-07-05T15:19:18.207Z,55.60
2018-07-05T15:21:57.807Z,56.50
2018-07-05T15:24:37.406Z,55.40
2018-07-05T15:27:17.672Z,55.30
2018-07-05T15:29:57.280Z,54.30
2018-07-05T15:32:37.093Z,53.30
2018-07-05T15:35:16.749Z,54.00
2018-07-05T15:37:56.448Z,53.60
2018-07-05T15:40:36.284Z,53.00
2018-07-05T15:45:49.684Z,53.20
2018-07-05T15:48:30.600Z,53.40
2018-07-05T15:51:10.102Z,54.60
2018-07-05T15:53:49.732Z,54.40
2018-07-05T15:56:29.331Z,55.20
2018-07-05T15:59:08.976Z,55.20
2018-07-05T16:01:48.640Z,56.40
2018-07-05T16:04:28.232Z,56.90
2018-07-05T16:07:07.899Z,57.00
2018-07-05T16:09:47.611Z,57.20
2018-07-05T16:12:27.415Z,58.40
2018-07-05T16:15:07.375Z,56.60
2018-07-05T16:17:46.997Z,57.50
2018-07-05T16:20:26.734Z,57.50
2018-07-05T16:23:06.606Z,57.90
2018-07-05T16:25:46.213Z,57.90
2018-07-05T16:28:25.814Z,57.00
2018-07-05T16:31:05.584Z,57.10
2018-07-05T16:33:45.484Z,57.70
2018-07-05T16:36:25.057Z,58.50
2018-07-05T16:39:05.091Z,59.00
2018-07-05T16:44:18.307Z,59.40
2018-07-05T16:46:57.905Z,59.80
2018-07-05T16:49:37.479Z,61.00
2018-07-05T16:52:17.089Z,61.10
2018-07-05T16:54:56.696Z,61.30
2018-07-05T16:57:36.375Z,61.70
2018-07-05T17:00:15.970Z,62.30
2018-07-05T17:02:55.642Z,62.90
2018-07-05T17:05:35.391Z,63.40
2018-07-05T17:08:15.176Z,62.70
2018-07-05T17:10:55.182Z,63.20
2018-07-05T17:13:34.752Z,63.30
2018-07-05T17:16:14.522Z,63.90
2018-07-05T17:18:54.418Z,63.80
2018-07-05T17:21:34.324Z,64.50
2018-07-05T17:24:14.271Z,65.00
2018-07-05T17:26:54.066Z,64.40
2018-07-05T17:29:33.737Z,65.00
2018-07-05T17:32:13.650Z,64.80
2018-07-05T17:34:53.683Z,64.30
2018-07-05T17:37:33.322Z,64.90
2018-07-05T17:40:12.959Z,63.10
2018-07-05T17:42:52.564Z,63.10
2018-07-05T17:45:32.262Z,63.20
2018-07-05T17:48:11.875Z,63.30
2018-07-05T17:50:51.699Z,63.20
2018-07-05T17:53:32.000Z,63.10
2018-07-05T17:56:11.883Z,63.70
2018-07-05T17:58:51.548Z,64.60
2018-07-05T18:01:31.232Z,65.40
2018-07-05T18:04:10.915Z,65.40
2018-07-05T18:06:51.527Z,65.60
2018-07-05T18:09:31.176Z,65.80
2018-07-05T18:12:10.819Z,66.40
2018-07-05T18:14:50.951Z,66.40
2018-07-05T18:17:30.548Z,66.80
2018-07-05T18:20:10.278Z,66.70
2018-07-05T18:22:49.935Z,67.20
2018-07-05T18:25:29.584Z,67.00
2018-07-05T18:28:09.296Z,67.60
2018-07-05T18:30:49.056Z,68.10
2018-07-05T18:33:28.795Z,68.50
2018-07-05T18:36:08.392Z,69.20
2018-07-05T18:38:48.073Z,69.80
2018-07-05T18:41:28.427Z,70.50
2018-07-05T18:44:08.091Z,71.30
2018-07-05T18:46:47.831Z,72.00
2018-07-05T18:49:27.454Z,72.70
2018-07-05T18:52:07.103Z,73.70
2018-07-05T18:54:46.720Z,74.70
2018-07-05T18:57:26.343Z,75.80
2018-07-05T19:00:05.936Z,76.20
2018-07-05T19:02:46.827Z,76.50
2018-07-05T19:05:26.386Z,77.10
2018-07-05T19:08:06.235Z,77.40
2018-07-05T19:10:45.911Z,78.20
2018-07-05T19:13:25.687Z,79.00
2018-07-05T19:16:05.303Z,79.00
2018-07-05T19:18:45.215Z,79.10
2018-07-05T19:21:24.911Z,79.60
2018-07-05T19:24:05.480Z,80.40
2018-07-05T19:26:45.327Z,80.50
2018-07-05T19:29:24.923Z,81.30
2018-07-05T19:32:04.596Z,81.90
2018-07-05T19:34:44.900Z,82.40
2018-07-05T19:37:24.652Z,82.90
2018-07-05T19:40:04.348Z,83.40
2018-07-05T19:42:43.963Z,83.80
2018-07-05T19:45:23.558Z,84.30
2018-07-05T19:48:03.351Z,84.70
2018-07-05T19:50:43.323Z,85.30
2018-07-05T19:53:23.004Z,86.00
2018-07-05T19:56:02.589Z,86.60
2018-07-05T19:58:43.139Z,87.00
2018-07-05T20:01:23.699Z,87.80
2018-07-05T20:04:03.355Z,88.40
2018-07-05T20:06:43.166Z,89.00
2018-07-05T20:09:22.986Z,90.00
2018-07-05T20:12:05.695Z,90.50
2018-07-05T20:14:45.415Z,90.50
2018-07-05T20:17:25.119Z,90.60
2018-07-05T20:20:04.836Z,90.90
2018-07-05T20:22:44.525Z,91.20
2018-07-05T20:25:24.246Z,91.50
2018-07-05T20:28:04.056Z,92.00
2018-07-05T20:30:43.841Z,92.00
2018-07-05T20:33:23.372Z,92.20
2018-07-05T20:36:03.049Z,92.40
2018-07-05T20:38:42.659Z,92.50
2018-07-05T20:41:22.271Z,92.80
2018-07-05T20:44:01.865Z,93.10
2018-07-05T20:46:41.932Z,93.30
2018-07-05T20:53:04.391Z,94.00
2018-07-05T20:55:43.863Z,94.90
2018-07-05T20:58:23.546Z,94.70
2018-07-05T21:01:03.319Z,95.60
2018-07-05T21:03:43.000Z,95.60
2018-07-05T21:06:22.503Z,95.90
2018-07-05T21:09:02.132Z,96.10
2018-07-05T21:11:41.715Z,96.50
2018-07-05T21:14:21.315Z,96.70
2018-07-05T21:17:00.929Z,96.90
2018-07-05T21:19:40.500Z,97.10
2018-07-05T21:22:20.060Z,97.60
2018-07-05T21:24:59.763Z,97.90
2018-07-05T21:27:39.363Z,98.00
2018-07-05T21:30:18.943Z,98.30
2018-07-05T21:32:58.999Z,98.50
2018-07-05T21:35:38.676Z,98.70
2018-07-05T21:38:18.236Z,99.20
2018-07-05T21:40:57.799Z,99.90
2018-07-05T21:43:37.379Z,99.90
2018-07-05T21:46:16.862Z,99.90
2018-07-05T21:48:56.443Z,99.90
2018-07-05T21:51:36.059Z,99.90
2018-07-05T21:54:15.753Z,99.90
2018-07-05T21:56:55.396Z,99.90
2018-07-05T21:59:34.995Z,99.90
2018-07-05T22:02:14.592Z,99.90
2018-07-05T22:04:54.223Z,99.90
2018-07-05T22:07:34.026Z,99.90
2018-07-05T22:10:13.527Z,99.90
2018-07-05T22:12:53.240Z,99.90
2018-07-05T22:15:32.800Z,99.90
2018-07-05T22:18:17.635Z,99.90
2018-07-05T22:21:02.607Z,99.90
2018-07-05T22:23:47.679Z,99.90
2018-07-05T22:26:33.222Z,99.90
2018-07-05T22:29:18.443Z,99.90
2018-07-05T22:31:59.383Z,99.90
2018-07-05T22:34:38.975Z,99.90
2018-07-05T22:37:18.659Z,99.90
2018-07-05T22:39:58.253Z,99.90
2018-07-05T22:42:38.007Z,99.90
2018-07-05T22:45:17.514Z,99.90
2018-07-05T22:47:57.130Z,99.90
2018-07-05T22:50:36.730Z,99.90
2018-07-05T22:53:16.280Z,99.90
2018-07-05T22:55:55.975Z,99.90
2018-07-05T22:58:35.758Z,99.90
2018-07-05T23:01:15.696Z,99.90
2018-07-05T23:03:55.967Z,99.90
2018-07-05T23:06:35.687Z,99.90
2018-07-05T23:09:15.474Z,99.90
2018-07-05T23:11:55.292Z,99.90
2018-07-05T23:14:36.191Z,99.90
2018-07-05T23:17:15.867Z,99.90
2018-07-05T23:19:55.468Z,99.90
2018-07-05T23:22:35.196Z,99.90
2018-07-05T23:25:14.876Z,99.90
2018-07-05T23:27:54.534Z,99.90
2018-07-05T23:30:34.313Z,99.90
2018-07-05T23:33:13.895Z,99.90
2018-07-05T23:35:53.514Z,99.90
2018-07-05T23:38:33.107Z,99.90
2018-07-05T23:41:13.812Z,99.90
2018-07-05T23:43:53.456Z,99.90
2018-07-05T23:46:33.087Z,99.90
2018-07-05T23:49:12.659Z,99.90
2018-07-05T23:51:52.231Z,99.90
2018-07-05T23:54:31.811Z,99.90
2018-07-05T23:57:11.563Z,99.90
2018-07-05T23:59:51.192Z,99.90
